Time;durP1;ratioP1;P1;durP2;ratioP2;P2;SDS_P1;SDS_P2;PMS_P1;PMS_P2;Temp;Humidity;BMP_temperature;BMP_pressure;BME280_temperature;BME280_humidity;BME280_pressure;Samples;Min_cycle;Max_cycle;Signal;HPM_P1;HPM_P2
2022/04/19 00:00:56;;;;;;;18.40;15.07;;;12.50;99.90;;;;;;5119049;28;20055;-60
2022/04/19 00:03:25;;;;;;;19.95;14.52;;;12.60;99.90;;;;;;5117932;28;20042;-61
2022/04/19 00:05:51;;;;;;;16.85;14.60;;;12.50;99.90;;;;;;5118628;28;20080;-62
2022/04/19 00:08:17;;;;;;;17.90;14.65;;;12.40;99.90;;;;;;5118577;28;20097;-62
2022/04/19 00:10:44;;;;;;;17.63;14.50;;;12.40;99.90;;;;;;5118394;28;20388;-62
2022/04/19 00:13:12;;;;;;;22.40;14.88;;;12.30;99.90;;;;;;5117701;28;20046;-62
2022/04/19 00:15:38;;;;;;;17.45;14.82;;;12.30;99.90;;;;;;5100767;28;20028;-62
2022/04/19 00:18:06;;;;;;;17.33;14.95;;;12.30;99.90;;;;;;5118417;28;20049;-61
2022/04/19 00:20:35;;;;;;;17.85;14.68;;;12.20;99.90;;;;;;5117660;28;20089;-61
2022/04/19 00:23:03;;;;;;;16.90;14.90;;;12.20;99.90;;;;;;5118708;28;20123;-62
2022/04/19 00:25:29;;;;;;;16.83;14.30;;;12.20;99.90;;;;;;5118160;28;20023;-61
2022/04/19 00:27:55;;;;;;;21.88;16.23;;;12.20;99.90;;;;;;5118204;28;20027;-60
2022/04/19 00:30:21;;;;;;;20.90;16.33;;;12.30;99.90;;;;;;5118171;28;20046;-60
2022/04/19 00:32:46;;;;;;;21.13;16.15;;;12.30;99.90;;;;;;5118164;28;20399;-61
2022/04/19 00:35:13;;;;;;;19.98;15.77;;;12.20;99.90;;;;;;5117261;28;20024;-61
2022/04/19 00:37:39;;;;;;;20.00;16.45;;;12.20;99.90;;;;;;5117126;28;20316;-61
2022/04/19 00:40:08;;;;;;;23.08;17.92;;;12.20;99.90;;;;;;5117918;28;20287;-60
2022/04/19 00:42:34;;;;;;;20.27;16.10;;;12.30;99.90;;;;;;5117969;28;20118;-61
2022/04/19 00:45:05;;;;;;;22.75;17.33;;;12.20;99.90;;;;;;5117882;28;20307;-61
2022/04/19 00:47:32;;;;;;;19.38;16.92;;;12.20;99.90;;;;;;5117848;28;20030;-60
2022/04/19 00:50:03;;;;;;;21.90;16.95;;;12.10;99.90;;;;;;5117052;28;20089;-60
2022/04/19 00:52:33;;;;;;;23.80;17.55;;;12.10;99.90;;;;;;5116951;28;20092;-62
2022/04/19 00:55:01;;;;;;;19.17;16.98;;;12.10;99.90;;;;;;5116950;28;20295;-61
2022/04/19 00:57:32;;;;;;;22.50;18.17;;;12.00;99.90;;;;;;5117183;28;20084;-62
2022/04/19 00:59:58;;;;;;;22.60;18.30;;;11.90;99.90;;;;;;5099825;28;20043;-62
2022/04/19 01:02:25;;;;;;;22.95;18.13;;;12.00;99.90;;;;;;5116596;28;20043;-62
2022/04/19 01:04:56;;;;;;;26.27;19.13;;;12.00;99.90;;;;;;5116880;28;20035;-59
2022/04/19 01:07:22;;;;;;;22.92;18.60;;;12.00;99.90;;;;;;5116918;28;20099;-60
2022/04/19 01:09:51;;;;;;;22.23;18.85;;;12.00;99.90;;;;;;5116648;28;20032;-60
2022/04/19 01:15:09;;;;;;;23.92;19.33;;;11.80;99.90;;;;;;5116934;28;20023;-60
2022/04/19 01:17:53;;;;;;;22.38;18.70;;;11.80;99.90;;;;;;5116884;28;20095;-60
2022/04/19 01:20:19;;;;;;;24.20;19.70;;;11.70;99.90;;;;;;5116666;28;20020;-60
2022/04/19 01:22:49;;;;;;;24.05;18.73;;;11.60;99.90;;;;;;5117369;28;20036;-60
2022/04/19 01:25:20;;;;;;;24.77;19.73;;;11.50;99.90;;;;;;5116771;28;20299;-61
2022/04/19 01:27:47;;;;;;;22.98;19.00;;;11.50;99.90;;;;;;5116685;28;20419;-61
2022/04/19 01:30:15;;;;;;;26.63;19.58;;;11.50;99.90;;;;;;5117430;28;20023;-60
2022/04/19 01:32:42;;;;;;;27.52;20.30;;;11.50;99.90;;;;;;5099554;28;20425;-61
2022/04/19 01:35:18;;;;;;;24.13;19.48;;;11.50;99.90;;;;;;5116293;28;20027;-61
2022/04/19 01:37:51;;;;;;;;;;;11.50;99.90;;;;;;5116715;28;20038;-61
2022/04/19 01:40:24;;;;;;;24.45;19.63;;;11.30;99.90;;;;;;5116399;28;19973;-61
2022/04/19 01:42:59;;;;;;;27.73;20.67;;;11.40;99.90;;;;;;5116329;28;20059;-61
2022/04/19 01:45:31;;;;;;;26.83;21.15;;;11.30;99.90;;;;;;5116396;28;20028;-62
2022/04/19 01:48:00;;;;;;;29.20;20.90;;;11.30;99.90;;;;;;5116771;28;20035;-61
2022/04/19 01:50:28;;;;;;;26.15;19.73;;;11.30;99.90;;;;;;5099229;28;20087;-60
2022/04/19 01:53:02;;;;;;;25.33;20.38;;;11.10;99.90;;;;;;5116117;28;20055;-61
2022/04/19 01:55:30;;;;;;;32.00;20.58;;;11.10;99.90;;;;;;5116495;28;20315;-61
2022/04/19 01:58:01;;;;;;;25.67;20.33;;;11.00;99.90;;;;;;5116104;28;20103;-61
2022/04/19 02:00:38;;;;;;;26.38;19.75;;;11.00;99.90;;;;;;5100749;28;20097;-61
2022/04/19 02:03:06;;;;;;;24.25;19.52;;;11.00;99.90;;;;;;5116995;28;20121;-61
2022/04/19 02:05:32;;;;;;;24.10;19.33;;;10.90;99.90;;;;;;5117031;28;20124;-61
2022/04/19 02:08:02;;;;;;;27.83;20.27;;;10.90;99.90;;;;;;5116929;28;20443;-62
2022/04/19 02:10:29;;;;;;;30.00;19.98;;;10.90;99.90;;;;;;5116330;28;20411;-61
2022/04/19 02:12:56;;;;;;;24.77;19.58;;;11.00;99.90;;;;;;5116721;28;20044;-61
2022/04/19 02:15:32;;;;;;;22.83;18.42;;;10.80;99.90;;;;;;5116895;28;20472;-61
2022/04/19 02:18:06;;;;;;;21.05;17.75;;;10.80;99.90;;;;;;5116391;28;20030;-62
2022/04/19 02:20:32;;;;;;;25.42;18.70;;;10.80;99.90;;;;;;5115998;28;20403;-61
2022/04/19 02:22:58;;;;;;;24.02;19.08;;;10.70;99.90;;;;;;5116076;28;20349;-61
2022/04/19 02:25:25;;;;;;;25.40;18.45;;;10.80;99.90;;;;;;5099031;28;20040;-61
2022/04/19 02:27:52;;;;;;;24.58;18.83;;;10.70;99.90;;;;;;5099006;28;20310;-61
2022/04/19 02:30:21;;;;;;;23.80;18.83;;;10.60;99.90;;;;;;5099283;28;20032;-61
2022/04/19 02:32:52;;;;;;;22.92;18.05;;;10.60;99.90;;;;;;5115867;28;20036;-61
2022/04/19 02:35:21;;;;;;;24.48;18.60;;;10.50;99.90;;;;;;5116906;28;20038;-61
2022/04/19 02:37:55;;;;;;;21.38;18.15;;;10.50;99.90;;;;;;5119546;28;20032;-61
2022/04/19 02:40:25;;;;;;;21.70;17.63;;;10.50;99.90;;;;;;5119584;28;20019;-61
2022/04/19 02:42:54;;;;;;;22.92;17.70;;;10.50;99.90;;;;;;5119422;28;20035;-61
2022/04/19 02:45:22;;;;;;;24.75;18.42;;;10.50;99.90;;;;;;5119408;28;20036;-62
2022/04/19 02:48:04;;;;;;;24.20;18.58;;;10.50;99.90;;;;;;5119343;28;20119;-61
2022/04/19 02:50:40;;;;;;;27.02;18.48;;;10.50;99.90;;;;;;5119596;28;20043;-61
2022/04/19 02:53:06;;;;;;;21.23;17.75;;;10.40;99.90;;;;;;5119300;28;20108;-62
2022/04/19 02:55:34;;;;;;;23.20;17.98;;;10.30;99.90;;;;;;5119094;28;20054;-62
2022/04/19 02:58:02;;;;;;;23.80;18.90;;;10.30;99.90;;;;;;5119316;28;20019;-61
2022/04/19 03:00:28;;;;;;;23.33;18.80;;;10.30;99.90;;;;;;5119270;28;20038;-61
2022/04/19 03:02:54;;;;;;;25.35;19.98;;;10.40;99.90;;;;;;5119242;28;20059;-61
2022/04/19 03:05:21;;;;;;;24.98;19.67;;;10.40;99.90;;;;;;5118972;28;20020;-61
2022/04/19 03:07:47;;;;;;;24.20;19.15;;;10.40;99.90;;;;;;5119856;28;20051;-61
2022/04/19 03:10:15;;;;;;;25.70;20.40;;;10.40;99.90;;;;;;5101946;28;20302;-61
2022/04/19 03:12:43;;;;;;;25.15;20.33;;;10.30;99.90;;;;;;5119049;28;20355;-61
2022/04/19 03:15:18;;;;;;;25.85;19.33;;;10.40;99.90;;;;;;5119072;28;20028;-61
2022/04/19 03:17:44;;;;;;;25.92;20.23;;;10.30;99.90;;;;;;5118854;28;20031;-61
2022/04/19 03:20:12;;;;;;;27.10;20.65;;;10.30;99.90;;;;;;5118852;28;20092;-63
2022/04/19 03:28:11;;;;;;;26.85;21.70;;;10.30;99.90;;;;;;5119587;28;20107;-61
2022/04/19 03:30:39;;;;;;;29.25;21.27;;;10.30;99.90;;;;;;5101502;28;20084;-61
2022/04/19 03:33:05;;;;;;;28.23;21.02;;;10.20;99.90;;;;;;5118560;28;20032;-61
2022/04/19 03:35:30;;;;;;;28.63;20.73;;;10.10;99.90;;;;;;5101443;28;20123;-61
2022/04/19 03:37:56;;;;;;;28.38;21.13;;;10.20;99.90;;;;;;5101619;28;20103;-61
2022/04/19 03:40:24;;;;;;;28.70;21.52;;;10.10;99.90;;;;;;5118276;28;20118;-61
2022/04/19 03:42:50;;;;;;;28.20;20.25;;;10.10;99.90;;;;;;5101795;28;20135;-61
2022/04/19 03:45:16;;;;;;;28.25;21.08;;;10.00;99.90;;;;;;5117901;28;20071;-61
2022/04/19 03:47:46;;;;;;;30.58;21.77;;;9.90;99.90;;;;;;5100984;28;20460;-61
2022/04/19 03:50:12;;;;;;;32.75;21.85;;;9.90;99.90;;;;;;5101326;28;20035;-61
2022/04/19 03:52:38;;;;;;;29.33;21.52;;;9.90;99.90;;;;;;5118976;28;20023;-61
2022/04/19 03:55:06;;;;;;;31.80;23.30;;;9.90;99.90;;;;;;5101471;28;20032;-61
2022/04/19 03:57:32;;;;;;;28.60;21.13;;;9.90;99.90;;;;;;5118261;28;20028;-61
2022/04/19 03:59:58;;;;;;;29.20;20.58;;;9.70;99.90;;;;;;5117885;28;20101;-60
2022/04/19 04:02:29;;;;;;;26.77;20.95;;;9.60;99.90;;;;;;5101787;28;20032;-61
2022/04/19 04:04:55;;;;;;;27.95;21.38;;;9.70;99.90;;;;;;5118656;28;20351;-61
2022/04/19 04:07:20;;;;;;;30.05;21.85;;;9.60;99.90;;;;;;5101281;28;20034;-61
2022/04/19 04:09:48;;;;;;;28.75;21.88;;;9.60;99.90;;;;;;5117665;28;20036;-60
2022/04/19 04:12:15;;;;;;;30.50;21.02;;;9.60;99.90;;;;;;5117679;28;20047;-60
2022/04/19 04:14:43;;;;;;;28.95;20.67;;;9.50;99.90;;;;;;5118156;28;20028;-61
2022/04/19 04:17:10;;;;;;;26.80;19.90;;;9.50;99.90;;;;;;5117556;28;20037;-60
2022/04/19 04:19:36;;;;;;;28.02;21.00;;;9.50;99.90;;;;;;5117365;28;20028;-60
2022/04/19 04:22:02;;;;;;;28.50;20.45;;;9.40;99.90;;;;;;5117410;28;20310;-60
2022/04/19 04:24:28;;;;;;;29.38;20.50;;;9.40;99.90;;;;;;5117386;28;20295;-61
2022/04/19 04:26:55;;;;;;;27.20;19.90;;;9.30;99.90;;;;;;5117402;28;20039;-60
2022/04/19 04:29:24;;;;;;;26.75;19.60;;;9.30;99.90;;;;;;5117425;28;20047;-60
2022/04/19 04:31:52;;;;;;;27.23;19.58;;;9.30;99.90;;;;;;5100553;28;20032;-60
2022/04/19 04:34:18;;;;;;;23.52;18.85;;;9.40;99.90;;;;;;5117266;28;20020;-61
2022/04/19 04:36:46;;;;;;;27.90;20.67;;;9.30;99.90;;;;;;5117180;28;20040;-60
2022/04/19 04:39:17;;;;;;;27.10;19.92;;;9.30;99.90;;;;;;5117277;28;20020;-61
2022/04/19 04:42:04;;;;;;;29.02;19.60;;;9.30;99.90;;;;;;5096641;28;20042;-61
2022/04/19 04:44:30;;;;;;;26.30;19.70;;;9.20;99.90;;;;;;5100115;28;20130;-61
2022/04/19 04:49:41;;;;;;;30.25;20.80;;;9.30;99.90;;;;;;5117182;28;20036;-61
2022/04/19 04:52:15;;;;;;;28.45;19.60;;;9.40;99.90;;;;;;5117098;28;20028;-61
2022/04/19 04:54:43;;;;;;;24.95;19.00;;;9.30;99.90;;;;;;5118162;28;20043;-62
2022/04/19 04:57:11;;;;;;;26.92;20.10;;;9.20;99.90;;;;;;5116914;28;20043;-61
2022/04/19 04:59:38;;;;;;;27.27;19.23;;;9.20;99.90;;;;;;5116807;28;20027;-61
2022/04/19 05:02:05;;;;;;;25.83;18.88;;;9.20;99.90;;;;;;5116539;28;20065;-61
2022/04/19 05:04:32;;;;;;;24.58;18.67;;;9.20;99.90;;;;;;5116543;28;20036;-61
2022/04/19 05:06:59;;;;;;;24.73;19.42;;;9.20;99.90;;;;;;5100102;28;20037;-61
2022/04/19 05:09:28;;;;;;;26.05;18.95;;;9.20;99.90;;;;;;5117039;28;20028;-61
2022/04/19 05:11:54;;;;;;;25.83;18.45;;;9.20;99.90;;;;;;5116536;28;20119;-61
2022/04/19 05:14:26;;;;;;;23.33;18.23;;;9.30;99.90;;;;;;5116858;28;20039;-61
2022/04/19 05:16:52;;;;;;;26.45;18.60;;;9.30;99.90;;;;;;5099401;28;20031;-63
2022/04/19 05:19:18;;;;;;;25.35;17.90;;;9.30;99.90;;;;;;5116584;28;20413;-61
2022/04/19 05:21:48;;;;;;;26.45;17.48;;;9.30;99.90;;;;;;5116449;28;20061;-61
2022/04/19 05:24:13;;;;;;;27.20;19.13;;;9.40;99.90;;;;;;5117385;28;20047;-61
2022/04/19 05:26:39;;;;;;;24.65;17.75;;;9.40;99.90;;;;;;5116375;28;20347;-61
2022/04/19 05:29:06;;;;;;;26.90;18.48;;;9.50;99.90;;;;;;5099778;28;20039;-61
2022/04/19 05:31:32;;;;;;;21.60;17.15;;;9.60;99.90;;;;;;5116168;28;20303;-61
2022/04/19 05:33:57;;;;;;;25.15;18.27;;;9.60;99.90;;;;;;5099412;28;20032;-61
2022/04/19 05:36:26;;;;;;;21.73;17.38;;;9.70;99.90;;;;;;5116314;28;20388;-61
2022/04/19 05:38:53;;;;;;;23.35;17.80;;;9.80;99.90;;;;;;5116359;28;20111;-62
2022/04/19 05:41:21;;;;;;;22.58;16.48;;;9.80;99.90;;;;;;5116175;28;20046;-61
2022/04/19 05:43:49;;;;;;;23.70;17.63;;;9.70;99.90;;;;;;5115986;28;20047;-61
2022/04/19 05:46:18;;;;;;;25.60;17.10;;;9.80;99.90;;;;;;5116584;28;20287;-62
2022/04/19 05:48:44;;;;;;;22.95;16.20;;;10.00;99.90;;;;;;5116206;28;20088;-61
2022/04/19 05:51:11;;;;;;;18.67;15.32;;;10.10;99.90;;;;;;5116765;28;20077;-62
2022/04/19 05:53:38;;;;;;;17.73;14.75;;;10.30;99.90;;;;;;5116272;28;20345;-61
2022/04/19 05:56:04;;;;;;;16.23;13.40;;;10.40;99.90;;;;;;5115940;28;20024;-61
2022/04/19 05:58:30;;;;;;;17.45;13.15;;;10.50;99.90;;;;;;5116190;28;20028;-61
2022/04/19 06:00:56;;;;;;;16.42;12.52;;;10.60;99.90;;;;;;5116179;28;20039;-61
2022/04/19 06:06:07;;;;;;;16.95;12.07;;;10.80;99.90;;;;;;5101820;28;20085;-61
2022/04/19 06:08:35;;;;;;;15.10;11.80;;;11.00;99.90;;;;;;5099522;28;20038;-63
2022/04/19 06:11:05;;;;;;;14.82;11.73;;;11.20;99.90;;;;;;5118856;28;20027;-61
2022/04/19 06:13:33;;;;;;;14.35;11.63;;;11.40;99.90;;;;;;5120785;28;20030;-61
2022/04/19 06:15:59;;;;;;;14.95;11.02;;;11.50;99.90;;;;;;5102905;28;20023;-62
2022/04/19 06:18:27;;;;;;;15.38;10.65;;;11.60;99.90;;;;;;5120677;28;20051;-60
2022/04/19 06:21:20;;;;;;;13.75;11.45;;;11.70;99.90;;;;;;5118631;28;20067;-62
2022/04/19 06:23:46;;;;;;;14.05;10.13;;;11.90;99.90;;;;;;5119807;28;20434;-58
2022/04/19 06:26:12;;;;;;;18.95;12.30;;;12.00;99.90;;;;;;5102889;28;20122;-61
2022/04/19 06:28:37;;;;;;;14.13;10.98;;;12.30;99.90;;;;;;5102701;28;20035;-61
2022/04/19 06:31:23;;;;;;;16.90;10.68;;;12.40;99.90;;;;;;5113048;28;20395;-61
2022/04/19 06:33:56;;;;;;;14.73;10.85;;;12.50;99.90;;;;;;5119964;28;20032;-61
2022/04/19 06:36:26;;;;;;;15.70;11.23;;;12.60;99.90;;;;;;5119568;28;20042;-59
2022/04/19 06:38:52;;;;;;;19.10;11.48;;;12.70;99.90;;;;;;5120217;28;20024;-59
2022/04/19 06:41:19;;;;;;;13.18;9.95;;;12.90;99.90;;;;;;5102630;28;20038;-58
2022/04/19 06:43:46;;;;;;;12.35;11.05;;;13.20;99.90;;;;;;5102504;28;20100;-59
2022/04/19 06:46:18;;;;;;;16.15;10.73;;;13.00;99.90;;;;;;5119336;28;20059;-59
2022/04/19 06:48:50;;;;;;;14.17;10.37;;;13.00;99.90;;;;;;5120435;28;20044;-59
2022/04/19 06:51:15;;;;;;;11.45;10.13;;;13.20;99.90;;;;;;5102377;28;20094;-59
2022/04/19 06:53:42;;;;;;;12.90;10.70;;;13.40;99.90;;;;;;5119277;28;20031;-61
2022/04/19 06:56:19;;;;;;;12.57;10.07;;;13.60;99.90;;;;;;5103937;28;20032;-60
2022/04/19 06:58:45;;;;;;;12.73;10.95;;;13.80;99.90;;;;;;5085454;28;20027;-61
2022/04/19 07:01:11;;;;;;;13.70;10.60;;;14.10;99.90;;;;;;5119760;28;20065;-60
2022/04/19 07:03:39;;;;;;;11.73;10.23;;;14.20;99.90;;;;;;5119275;28;20036;-59
2022/04/19 07:06:25;;;;;;;12.48;10.35;;;14.50;99.90;;;;;;5118851;28;20039;-60
2022/04/19 07:08:51;;;;;;;12.80;10.13;;;14.70;99.90;;;;;;5102194;28;20024;-61
2022/04/19 07:11:17;;;;;;;11.75;10.27;;;15.00;99.90;;;;;;5119219;28;20422;-61
2022/04/19 07:13:52;;;;;;;12.75;10.40;;;15.20;99.90;;;;;;5119193;28;20387;-61
2022/04/19 07:16:38;;;;;;;13.27;10.65;;;15.50;99.90;;;;;;5117543;28;20399;-61
2022/04/19 07:19:04;;;;;;;14.00;10.57;;;15.50;99.90;;;;;;5101895;28;20038;-61
2022/04/19 07:26:59;;;;;;;17.63;12.52;;;15.80;99.90;;;;;;5119496;28;20059;-61
2022/04/19 07:29:26;;;;;;;13.30;10.52;;;16.00;99.90;;;;;;5119589;28;20118;-61
2022/04/19 07:31:51;;;;;;;12.65;11.40;;;16.10;99.90;;;;;;5101816;28;20123;-61
2022/04/19 07:34:46;;;;;;;13.27;11.88;;;16.30;99.90;;;;;;5082484;28;20033;-60
2022/04/19 07:37:12;;;;;;;13.73;10.50;;;16.30;99.90;;;;;;5118814;28;20088;-60
2022/04/19 07:39:39;;;;;;;12.43;11.02;;;16.10;99.90;;;;;;5101823;28;20356;-59
2022/04/19 07:42:05;;;;;;;13.10;10.75;;;16.20;99.90;;;;;;5101378;28;20206;-59
2022/04/19 07:44:31;;;;;;;14.35;10.65;;;16.40;99.90;;;;;;5118418;28;20051;-60
2022/04/19 07:46:57;;;;;;;18.48;11.50;;;16.40;99.90;;;;;;5118573;28;20036;-60
2022/04/19 07:49:23;;;;;;;12.98;10.68;;;16.40;99.90;;;;;;5119644;28;20035;-60
2022/04/19 07:51:49;;;;;;;14.02;10.98;;;16.50;99.90;;;;;;5119022;28;20023;-60
2022/04/19 07:54:15;;;;;;;15.00;11.70;;;16.70;99.90;;;;;;5118210;28;20050;-60
2022/04/19 07:56:41;;;;;;;12.35;10.68;;;16.70;99.90;;;;;;5118337;28;20050;-61
2022/04/19 07:59:07;;;;;;;15.10;11.68;;;16.80;99.90;;;;;;5101348;28;20032;-60
2022/04/19 08:01:34;;;;;;;12.18;9.70;;;16.90;99.90;;;;;;5118122;28;20043;-60
2022/04/19 08:04:00;;;;;;;13.80;11.05;;;17.10;99.90;;;;;;5118172;28;20032;-60
2022/04/19 08:06:28;;;;;;;15.10;10.82;;;17.30;99.90;;;;;;5101004;28;20046;-60
2022/04/19 08:08:54;;;;;;;12.02;9.27;;;17.40;99.90;;;;;;5118142;28;20069;-61
2022/04/19 08:11:21;;;;;;;11.43;9.40;;;17.50;99.90;;;;;;5101196;28;20036;-60
2022/04/19 08:13:48;;;;;;;11.05;8.57;;;17.60;99.90;;;;;;5118288;28;20063;-60
2022/04/19 08:16:14;;;;;;;10.35;8.73;;;17.60;99.90;;;;;;5101041;28;20028;-61
2022/04/19 08:18:40;;;;;;;11.23;8.55;;;17.80;99.90;;;;;;5119322;28;20028;-60
2022/04/19 08:21:06;;;;;;;10.15;7.85;;;17.80;99.90;;;;;;5117906;28;20336;-60
2022/04/19 08:23:32;;;;;;;12.73;6.97;;;17.90;99.90;;;;;;5117831;28;20051;-60
2022/04/19 08:26:06;;;;;;;9.77;7.25;;;18.10;99.90;;;;;;5117758;28;20118;-60
2022/04/19 08:28:32;;;;;;;12.82;7.38;;;18.20;99.90;;;;;;5100821;28;20062;-60
2022/04/19 08:30:58;;;;;;;9.93;7.45;;;18.10;99.90;;;;;;5117636;28;20055;-61
2022/04/19 08:33:29;;;;;;;9.43;6.88;;;18.30;99.90;;;;;;5117002;28;20032;-60
2022/04/19 08:35:55;;;;;;;9.88;7.55;;;18.30;99.90;;;;;;5117599;28;20039;-60
2022/04/19 08:38:22;;;;;;;9.25;7.18;;;17.90;99.70;;;;;;5118257;28;20015;-60
2022/04/19 08:40:48;;;;;;;10.10;7.55;;;17.80;99.90;;;;;;5100737;28;20027;-60
2022/04/19 08:43:15;;;;;;;9.80;6.97;;;18.00;99.90;;;;;;5100474;28;20311;-60
2022/04/19 08:45:41;;;;;;;11.02;7.35;;;18.10;99.90;;;;;;5118215;28;20031;-60
2022/04/19 08:48:09;;;;;;;9.77;6.88;;;18.20;99.40;;;;;;5117643;28;20356;-60
2022/04/19 08:50:37;;;;;;;10.25;7.28;;;18.30;99.00;;;;;;5100377;28;20040;-60
2022/04/19 08:58:32;;;;;;;11.07;7.50;;;18.10;99.00;;;;;;5117295;28;20032;-60
2022/04/19 09:00:58;;;;;;;9.98;7.20;;;18.40;97.80;;;;;;5117198;28;20019;-60
2022/04/19 09:03:25;;;;;;;9.57;6.88;;;18.50;97.40;;;;;;5117994;28;20036;-60
2022/04/19 09:05:52;;;;;;;11.00;7.22;;;18.60;97.60;;;;;;5118303;28;20031;-61
2022/04/19 09:08:19;;;;;;;12.38;7.90;;;18.80;97.00;;;;;;5117712;28;20035;-61
2022/04/19 09:10:45;;;;;;;10.10;6.72;;;18.70;96.60;;;;;;5116879;28;20114;-61
2022/04/19 09:13:14;;;;;;;9.60;7.03;;;18.70;95.70;;;;;;5100059;28;20299;-61
2022/04/19 09:15:44;;;;;;;7.93;6.45;;;18.90;95.70;;;;;;5116907;28;20019;-60
2022/04/19 09:18:14;;;;;;;8.48;6.72;;;19.10;94.80;;;;;;5117682;28;20368;-61
2022/04/19 09:20:40;;;;;;;12.00;6.72;;;18.80;94.20;;;;;;5117614;28;20133;-61
2022/04/19 09:23:12;;;;;;;9.00;6.15;;;18.90;93.50;;;;;;5116842;28;20039;-61
2022/04/19 09:25:39;;;;;;;9.43;5.78;;;18.90;91.60;;;;;;5116905;28;20032;-60
2022/04/19 09:28:16;;;;;;;9.02;5.90;;;18.80;91.20;;;;;;5117765;28;20118;-61
2022/04/19 09:30:43;;;;;;;9.55;6.78;;;18.90;90.90;;;;;;5117530;28;20024;-61
2022/04/19 09:33:17;;;;;;;7.95;6.32;;;18.90;90.90;;;;;;5117422;28;20028;-58
2022/04/19 09:35:48;;;;;;;8.05;6.20;;;19.10;91.20;;;;;;5116577;28;20020;-60
2022/04/19 09:38:15;;;;;;;7.90;5.93;;;19.30;90.30;;;;;;5116721;28;20043;-60
2022/04/19 09:40:44;;;;;;;10.65;6.05;;;19.40;89.60;;;;;;5116565;28;20356;-60
2022/04/19 09:43:24;;;;;;;8.07;6.18;;;19.40;87.00;;;;;;5116462;28;20338;-60
2022/04/19 09:45:54;;;;;;;8.80;5.95;;;19.50;87.50;;;;;;5120731;28;20425;-60
2022/04/19 09:48:28;;;;;;;7.88;6.25;;;19.80;85.70;;;;;;5103852;28;20088;-60
2022/04/19 09:51:02;;;;;;;7.22;6.13;;;19.60;83.80;;;;;;5121447;28;20047;-60
2022/04/19 09:53:40;;;;;;;7.35;5.68;;;19.70;82.40;;;;;;5121440;28;20031;-60
2022/04/19 09:56:15;;;;;;;6.57;5.50;;;19.90;84.60;;;;;;5121877;28;20322;-60
2022/04/19 09:58:43;;;;;;;10.38;5.25;;;19.60;84.60;;;;;;5121368;28;20028;-60
2022/04/19 10:08:10;;;;;;;6.00;5.00;;;19.60;83.40;;;;;;5121261;28;20031;-60
2022/04/19 10:09:24;;;;;;;5.00;4.50;;;20.00;82.30;;;;;;5121760;28;20036;-60
2022/04/19 10:11:51;;;;;;;8.02;4.85;;;19.60;82.80;;;;;;5121028;28;20298;-60
2022/04/19 10:14:18;;;;;;;6.10;4.80;;;19.80;84.00;;;;;;5103328;28;20115;-60
2022/04/19 10:16:45;;;;;;;10.40;5.63;;;20.00;81.90;;;;;;5120724;28;20070;-60
2022/04/19 10:19:12;;;;;;;9.52;5.68;;;20.00;82.00;;;;;;5121113;28;20036;-61
2022/04/19 10:21:44;;;;;;;6.55;5.60;;;20.40;82.60;;;;;;5120277;28;20071;-61
2022/04/19 10:24:12;;;;;;;6.80;5.32;;;20.30;81.50;;;;;;5121519;28;20032;-60
2022/04/19 10:26:47;;;;;;;7.85;5.57;;;20.10;82.20;;;;;;5120857;28;20020;-60
2022/04/19 10:29:17;;;;;;;5.53;4.82;;;20.50;82.50;;;;;;5120794;28;20085;-60
2022/04/19 10:32:01;;;;;;;7.30;4.40;;;20.80;80.90;;;;;;5120714;28;20030;-61
2022/04/19 10:34:35;;;;;;;5.32;4.35;;;20.80;78.40;;;;;;5120878;28;20038;-61
2022/04/19 10:37:26;;;;;;;7.10;4.60;;;21.00;78.70;;;;;;5120953;28;20028;-61
2022/04/19 10:40:07;;;;;;;5.75;4.82;;;21.10;78.00;;;;;;5120639;28;20046;-61
2022/04/19 10:42:34;;;;;;;5.85;5.03;;;21.10;76.00;;;;;;5120620;28;20089;-61
2022/04/19 10:45:12;;;;;;;9.35;5.20;;;21.40;77.60;;;;;;5120443;28;20047;-61
2022/04/19 10:48:03;;;;;;;9.13;5.75;;;21.60;79.40;;;;;;5120463;28;20118;-61
2022/04/19 10:50:44;;;;;;;6.15;4.80;;;21.70;78.70;;;;;;5109205;27;20331;-61
2022/04/19 10:53:11;;;;;;;5.10;4.50;;;22.80;75.40;;;;;;5120417;28;20383;-61
2022/04/19 10:55:37;;;;;;;9.05;5.03;;;24.00;72.10;;;;;;5118892;28;20032;-61
2022/04/19 10:58:17;;;;;;;6.07;4.50;;;24.20;67.70;;;;;;5120230;28;20034;-61
2022/04/19 11:00:57;;;;;;;6.80;4.85;;;24.10;65.10;;;;;;5120426;28;20028;-61
2022/04/19 11:03:26;;;;;;;8.70;5.10;;;24.40;64.90;;;;;;5119407;28;20046;-61
2022/04/19 11:05:59;;;;;;;7.88;5.10;;;23.40;65.30;;;;;;5102432;28;20107;-61
2022/04/19 11:08:25;;;;;;;7.63;5.35;;;24.10;65.30;;;;;;5119395;28;20042;-61
2022/04/19 11:11:03;;;;;;;8.25;4.88;;;24.20;63.40;;;;;;5120028;28;20023;-60
2022/04/19 11:13:31;;;;;;;8.45;5.30;;;24.70;61.10;;;;;;5119896;28;20028;-61
2022/04/19 11:16:06;;;;;;;7.10;5.78;;;25.00;60.60;;;;;;5119889;28;20023;-64
2022/04/19 11:18:32;;;;;;;9.27;5.78;;;23.50;61.50;;;;;;5119044;28;20020;-61
2022/04/19 11:21:02;;;;;;;7.03;5.30;;;23.30;63.80;;;;;;5120252;28;20023;-60
2022/04/19 11:23:31;;;;;;;8.43;6.25;;;24.20;63.10;;;;;;5119162;28;20019;-60
2022/04/19 11:26:00;;;;;;;7.38;5.45;;;24.60;61.60;;;;;;5119047;28;20256;-60
2022/04/19 11:28:31;;;;;;;7.30;6.10;;;25.50;59.70;;;;;;5120196;28;20085;-61
2022/04/19 11:30:57;;;;;;;7.90;6.30;;;25.80;58.10;;;;;;5120159;28;20026;-61
2022/04/19 11:33:24;;;;;;;7.85;6.40;;;26.30;57.40;;;;;;5119424;28;20028;-60
2022/04/19 11:35:57;;;;;;;9.60;6.43;;;25.60;58.30;;;;;;5119529;28;20024;-61
2022/04/19 11:38:23;;;;;;;7.70;6.90;;;26.00;58.10;;;;;;5119576;28;20087;-60
2022/04/19 11:49:06;;;;;;;6.97;5.68;;;29.50;51.20;;;;;;5119239;28;20046;-60
2022/04/19 11:51:37;;;;;;;6.85;6.15;;;28.40;50.50;;;;;;5119396;28;20115;-61
2022/04/19 11:54:04;;;;;;;7.57;6.35;;;27.70;49.20;;;;;;5118564;28;20295;-61
2022/04/19 11:56:31;;;;;;;7.30;5.88;;;27.10;49.90;;;;;;5118545;28;20287;-61
2022/04/19 11:59:01;;;;;;;6.63;5.80;;;27.10;51.40;;;;;;5119178;28;20036;-60
2022/04/19 12:01:28;;;;;;;6.32;5.72;;;26.20;53.10;;;;;;5119051;28;20047;-60
2022/04/19 12:03:54;;;;;;;7.85;5.82;;;25.60;51.90;;;;;;5101515;28;20040;-61
2022/04/19 12:06:21;;;;;;;6.70;5.75;;;26.20;51.00;;;;;;5118288;28;20035;-61
2022/04/19 12:08:53;;;;;;;6.38;5.78;;;27.50;50.70;;;;;;5117989;28;20319;-60
2022/04/19 12:11:27;;;;;;;8.95;6.45;;;27.90;49.20;;;;;;5118806;28;20185;-60
2022/04/19 12:13:54;;;;;;;8.00;5.38;;;29.00;48.40;;;;;;5118879;28;20088;-61
2022/04/19 12:16:30;;;;;;;6.30;5.53;;;30.00;46.70;;;;;;5118739;28;20032;-61
2022/04/19 12:19:12;;;;;;;7.10;5.88;;;30.50;46.60;;;;;;5118695;28;20028;-61
2022/04/19 12:21:40;;;;;;;6.53;5.82;;;30.70;45.10;;;;;;5118973;28;20036;-61
2022/04/19 12:24:19;;;;;;;6.22;5.30;;;30.30;45.60;;;;;;5118589;28;20108;-61
2022/04/19 12:27:03;;;;;;;8.10;5.35;;;28.70;46.30;;;;;;5118591;28;20050;-61
2022/04/19 12:29:30;;;;;;;6.38;5.72;;;28.00;47.60;;;;;;5118589;28;20425;-59
2022/04/19 12:32:03;;;;;;;9.10;5.50;;;27.90;47.30;;;;;;5118380;28;20023;-60
2022/04/19 12:34:39;;;;;;;6.53;5.47;;;29.10;46.40;;;;;;5117679;28;20399;-60
2022/04/19 12:37:10;;;;;;;5.85;5.10;;;30.70;44.90;;;;;;5118342;28;20394;-60
2022/04/19 12:39:36;;;;;;;5.60;5.07;;;31.60;42.80;;;;;;5118379;28;20024;-60
2022/04/19 12:42:09;;;;;;;5.90;5.13;;;31.10;41.80;;;;;;5118243;28;20043;-60
2022/04/19 12:44:37;;;;;;;6.18;5.20;;;32.10;42.30;;;;;;5118179;28;20430;-60
2022/04/19 12:47:16;;;;;;;5.88;4.70;;;33.00;41.70;;;;;;5118178;28;20031;-60
2022/04/19 12:49:46;;;;;;;5.32;4.82;;;33.20;40.70;;;;;;5118218;28;20391;-61
2022/04/19 12:52:13;;;;;;;7.93;5.38;;;33.60;39.90;;;;;;5117310;28;20028;-60
2022/04/19 12:54:44;;;;;;;6.18;4.50;;;34.40;38.20;;;;;;5118072;28;20032;-60
2022/04/19 12:57:23;;;;;;;5.63;5.03;;;34.80;38.50;;;;;;5117327;28;20269;-60
2022/04/19 12:59:50;;;;;;;4.95;4.45;;;34.30;37.80;;;;;;5118049;28;20031;-61
2022/04/19 13:02:20;;;;;;;6.25;4.93;;;34.70;37.40;;;;;;5117169;28;20042;-61
2022/04/19 13:04:50;;;;;;;6.93;5.15;;;35.10;37.10;;;;;;5117190;28;20449;-61
2022/04/19 13:12:46;;;;;;;7.32;5.50;;;35.80;35.40;;;;;;5116938;28;20046;-61
2022/04/19 13:15:13;;;;;;;7.57;6.20;;;36.50;34.60;;;;;;5117798;28;20048;-62
2022/04/19 13:17:41;;;;;;;7.25;6.07;;;36.00;34.40;;;;;;5116863;28;20039;-62
2022/04/19 13:20:08;;;;;;;7.20;6.00;;;35.50;35.50;;;;;;5117311;28;20028;-61
2022/04/19 13:22:36;;;;;;;7.47;6.25;;;35.30;35.50;;;;;;5117552;28;20043;-61
2022/04/19 13:25:03;;;;;;;6.10;5.55;;;35.90;34.70;;;;;;5117673;28;20389;-60
2022/04/19 13:27:33;;;;;;;7.88;6.63;;;35.80;35.30;;;;;;5117547;28;20130;-60
2022/04/19 13:30:00;;;;;;;7.10;6.18;;;34.30;34.60;;;;;;5117837;28;20035;-60